sensor_id;sensor_type;location;lat;lon;timestamp;P1;durP1;ratioP1;P2;durP2;ratioP2
67768;SDS011;54569;52.018;5.584;2023-06-26T00:00:32;14.20;;;12.98;;
67768;SDS011;54569;52.018;5.584;2023-06-26T00:02:58;15.10;;;13.73;;
67768;SDS011;54569;52.018;5.584;2023-06-26T00:05:23;15.45;;;13.95;;
67768;SDS011;54569;52.018;5.584;2023-06-26T00:07:49;14.93;;;13.52;;
67768;SDS011;54569;52.018;5.584;2023-06-26T00:10:15;14.02;;;12.88;;
67768;SDS011;54569;52.018;5.584;2023-06-26T00:12:40;14.60;;;13.35;;
67768;SDS011;54569;52.018;5.584;2023-06-26T00:15:06;15.00;;;13.68;;
67768;SDS011;54569;52.018;5.584;2023-06-26T00:17:33;14.80;;;13.60;;
67768;SDS011;54569;52.018;5.584;2023-06-26T00:20:02;15.05;;;13.65;;
67768;SDS011;54569;52.018;5.584;2023-06-26T00:22:31;15.27;;;13.88;;
67768;SDS011;54569;52.018;5.584;2023-06-26T00:24:57;13.77;;;12.63;;
67768;SDS011;54569;52.018;5.584;2023-06-26T00:27:23;14.93;;;13.63;;
67768;SDS011;54569;52.018;5.584;2023-06-26T00:29:48;15.40;;;13.82;;
67768;SDS011;54569;52.018;5.584;2023-06-26T00:32:16;16.02;;;14.43;;
67768;SDS011;54569;52.018;5.584;2023-06-26T00:34:41;14.82;;;13.50;;
67768;SDS011;54569;52.018;5.584;2023-06-26T00:37:07;14.00;;;12.77;;
67768;SDS011;54569;52.018;5.584;2023-06-26T00:39:33;12.80;;;11.65;;
67768;SDS011;54569;52.018;5.584;2023-06-26T00:42:00;12.40;;;11.30;;
67768;SDS011;54569;52.018;5.584;2023-06-26T00:44:26;11.73;;;10.70;;
67768;SDS011;54569;52.018;5.584;2023-06-26T00:46:51;11.43;;;10.43;;
67768;SDS011;54569;52.018;5.584;2023-06-26T00:49:18;11.55;;;10.35;;
67768;SDS011;54569;52.018;5.584;2023-06-26T00:51:44;11.25;;;10.23;;
67768;SDS011;54569;52.018;5.584;2023-06-26T00:54:10;10.63;;;9.63;;
67768;SDS011;54569;52.018;5.584;2023-06-26T00:56:36;11.77;;;10.75;;
67768;SDS011;54569;52.018;5.584;2023-06-26T00:59:04;11.20;;;10.20;;
67768;SDS011;54569;52.018;5.584;2023-06-26T01:01:30;10.73;;;9.65;;
67768;SDS011;54569;52.018;5.584;2023-06-26T01:03:55;10.95;;;9.95;;
67768;SDS011;54569;52.018;5.584;2023-06-26T01:06:24;10.18;;;9.20;;
67768;SDS011;54569;52.018;5.584;2023-06-26T01:08:52;9.35;;;8.55;;
67768;SDS011;54569;52.018;5.584;2023-06-26T01:11:18;10.45;;;9.55;;
67768;SDS011;54569;52.018;5.584;2023-06-26T01:13:44;10.00;;;9.10;;
67768;SDS011;54569;52.018;5.584;2023-06-26T01:16:11;9.30;;;8.50;;
67768;SDS011;54569;52.018;5.584;2023-06-26T01:18:38;8.75;;;8.05;;
67768;SDS011;54569;52.018;5.584;2023-06-26T01:21:07;10.25;;;9.20;;
67768;SDS011;54569;52.018;5.584;2023-06-26T01:23:49;10.43;;;8.63;;
67768;SDS011;54569;52.018;5.584;2023-06-26T01:26:30;10.52;;;8.40;;
67768;SDS011;54569;52.018;5.584;2023-06-26T01:29:00;9.48;;;7.78;;
67768;SDS011;54569;52.018;5.584;2023-06-26T01:31:29;8.07;;;7.43;;
67768;SDS011;54569;52.018;5.584;2023-06-26T01:33:56;9.00;;;8.15;;
67768;SDS011;54569;52.018;5.584;2023-06-26T01:36:24;9.27;;;8.20;;
67768;SDS011;54569;52.018;5.584;2023-06-26T01:38:50;8.60;;;7.47;;
67768;SDS011;54569;52.018;5.584;2023-06-26T01:41:16;8.65;;;7.50;;
67768;SDS011;54569;52.018;5.584;2023-06-26T01:44:29;8.23;;;7.43;;
67768;SDS011;54569;52.018;5.584;2023-06-26T01:52:07;8.10;;;6.18;;
67768;SDS011;54569;52.018;5.584;2023-06-26T01:57:47;6.35;;;5.00;;
67768;SDS011;54569;52.018;5.584;2023-06-26T02:00:16;5.93;;;4.95;;
67768;SDS011;54569;52.018;5.584;2023-06-26T02:02:45;8.98;;;5.05;;
67768;SDS011;54569;52.018;5.584;2023-06-26T02:05:12;5.90;;;4.72;;
67768;SDS011;54569;52.018;5.584;2023-06-26T02:07:39;5.75;;;4.93;;
67768;SDS011;54569;52.018;5.584;2023-06-26T02:10:05;6.53;;;4.80;;
67768;SDS011;54569;52.018;5.584;2023-06-26T02:12:32;7.50;;;5.65;;
67768;SDS011;54569;52.018;5.584;2023-06-26T02:14:57;7.25;;;4.55;;
67768;SDS011;54569;52.018;5.584;2023-06-26T02:17:24;8.52;;;4.90;;
67768;SDS011;54569;52.018;5.584;2023-06-26T02:19:53;4.78;;;4.18;;
67768;SDS011;54569;52.018;5.584;2023-06-26T02:22:19;9.00;;;4.95;;
67768;SDS011;54569;52.018;5.584;2023-06-26T02:24:46;8.40;;;4.80;;
67768;SDS011;54569;52.018;5.584;2023-06-26T02:27:12;8.98;;;5.43;;
67768;SDS011;54569;52.018;5.584;2023-06-26T02:29:38;10.00;;;5.80;;
67768;SDS011;54569;52.018;5.584;2023-06-26T02:32:07;8.20;;;5.50;;
67768;SDS011;54569;52.018;5.584;2023-06-26T02:34:33;8.55;;;5.93;;
67768;SDS011;54569;52.018;5.584;2023-06-26T02:37:00;8.35;;;5.72;;
67768;SDS011;54569;52.018;5.584;2023-06-26T02:39:26;11.23;;;5.70;;
67768;SDS011;54569;52.018;5.584;2023-06-26T02:41:52;9.38;;;6.25;;
67768;SDS011;54569;52.018;5.584;2023-06-26T02:44:19;7.63;;;5.57;;
67768;SDS011;54569;52.018;5.584;2023-06-26T02:46:46;6.95;;;6.00;;
67768;SDS011;54569;52.018;5.584;2023-06-26T02:49:12;7.55;;;5.15;;
67768;SDS011;54569;52.018;5.584;2023-06-26T02:51:37;8.50;;;5.32;;
67768;SDS011;54569;52.018;5.584;2023-06-26T02:54:11;8.15;;;5.03;;
67768;SDS011;54569;52.018;5.584;2023-06-26T02:56:37;8.90;;;5.22;;
67768;SDS011;54569;52.018;5.584;2023-06-26T02:59:02;5.95;;;4.50;;
67768;SDS011;54569;52.018;5.584;2023-06-26T03:01:28;11.10;;;5.20;;
67768;SDS011;54569;52.018;5.584;2023-06-26T03:03:54;8.10;;;5.30;;
67768;SDS011;54569;52.018;5.584;2023-06-26T03:06:20;12.00;;;5.72;;
67768;SDS011;54569;52.018;5.584;2023-06-26T03:08:46;12.27;;;6.50;;
67768;SDS011;54569;52.018;5.584;2023-06-26T03:11:13;8.10;;;5.57;;
67768;SDS011;54569;52.018;5.584;2023-06-26T03:13:39;8.85;;;4.97;;
67768;SDS011;54569;52.018;5.584;2023-06-26T03:16:05;10.77;;;5.72;;
67768;SDS011;54569;52.018;5.584;2023-06-26T03:18:31;8.10;;;5.43;;
67768;SDS011;54569;52.018;5.584;2023-06-26T03:20:56;9.55;;;5.90;;
67768;SDS011;54569;52.018;5.584;2023-06-26T03:23:23;10.70;;;6.05;;
67768;SDS011;54569;52.018;5.584;2023-06-26T03:25:49;12.80;;;5.95;;
67768;SDS011;54569;52.018;5.584;2023-06-26T03:28:27;8.65;;;5.53;;
67768;SDS011;54569;52.018;5.584;2023-06-26T03:30:53;11.10;;;5.65;;
67768;SDS011;54569;52.018;5.584;2023-06-26T03:33:19;11.07;;;5.70;;
67768;SDS011;54569;52.018;5.584;2023-06-26T03:35:45;10.40;;;5.55;;
67768;SDS011;54569;52.018;5.584;2023-06-26T03:38:13;10.18;;;5.38;;
67768;SDS011;54569;52.018;5.584;2023-06-26T03:40:40;9.85;;;6.07;;
67768;SDS011;54569;52.018;5.584;2023-06-26T03:43:06;11.88;;;6.45;;
67768;SDS011;54569;52.018;5.584;2023-06-26T03:45:42;9.88;;;5.80;;
67768;SDS011;54569;52.018;5.584;2023-06-26T03:48:08;11.18;;;6.32;;
67768;SDS011;54569;52.018;5.584;2023-06-26T03:50:35;11.93;;;6.40;;
67768;SDS011;54569;52.018;5.584;2023-06-26T03:53:01;12.80;;;6.15;;
67768;SDS011;54569;52.018;5.584;2023-06-26T03:55:27;9.85;;;5.65;;
67768;SDS011;54569;52.018;5.584;2023-06-26T03:57:53;12.20;;;6.32;;
67768;SDS011;54569;52.018;5.584;2023-06-26T04:00:18;13.73;;;5.93;;
67768;SDS011;54569;52.018;5.584;2023-06-26T04:02:44;12.60;;;5.63;;
67768;SDS011;54569;52.018;5.584;2023-06-26T04:05:11;12.20;;;5.53;;
67768;SDS011;54569;52.018;5.584;2023-06-26T04:07:37;14.45;;;5.20;;
67768;SDS011;54569;52.018;5.584;2023-06-26T04:10:05;13.13;;;5.60;;
67768;SDS011;54569;52.018;5.584;2023-06-26T04:12:32;11.63;;;5.97;;
67768;SDS011;54569;52.018;5.584;2023-06-26T04:14:58;17.10;;;6.20;;
67768;SDS011;54569;52.018;5.584;2023-06-26T04:17:24;13.30;;;5.85;;
67768;SDS011;54569;52.018;5.584;2023-06-26T04:19:49;11.63;;;6.00;;
67768;SDS011;54569;52.018;5.584;2023-06-26T04:22:15;13.13;;;5.93;;
67768;SDS011;54569;52.018;5.584;2023-06-26T04:24:41;12.18;;;5.57;;
67768;SDS011;54569;52.018;5.584;2023-06-26T04:27:06;14.57;;;5.53;;
67768;SDS011;54569;52.018;5.584;2023-06-26T04:29:32;12.30;;;5.43;;
67768;SDS011;54569;52.018;5.584;2023-06-26T04:31:58;15.57;;;5.43;;
67768;SDS011;54569;52.018;5.584;2023-06-26T04:34:27;12.95;;;5.60;;
67768;SDS011;54569;52.018;5.584;2023-06-26T04:36:53;14.02;;;5.65;;
67768;SDS011;54569;52.018;5.584;2023-06-26T04:39:19;13.48;;;5.72;;
67768;SDS011;54569;52.018;5.584;2023-06-26T04:41:45;14.23;;;6.03;;
67768;SDS011;54569;52.018;5.584;2023-06-26T04:44:11;12.10;;;5.95;;
67768;SDS011;54569;52.018;5.584;2023-06-26T04:46:37;11.60;;;6.53;;
67768;SDS011;54569;52.018;5.584;2023-06-26T04:49:07;12.20;;;6.32;;
67768;SDS011;54569;52.018;5.584;2023-06-26T04:51:35;11.85;;;5.40;;
67768;SDS011;54569;52.018;5.584;2023-06-26T04:54:07;10.82;;;5.70;;
67768;SDS011;54569;52.018;5.584;2023-06-26T04:56:33;10.10;;;5.05;;
67768;SDS011;54569;52.018;5.584;2023-06-26T04:59:00;11.93;;;5.15;;
67768;SDS011;54569;52.018;5.584;2023-06-26T05:01:25;9.05;;;4.63;;
67768;SDS011;54569;52.018;5.584;2023-06-26T05:03:54;9.93;;;5.00;;
67768;SDS011;54569;52.018;5.584;2023-06-26T05:06:21;11.73;;;5.22;;
67768;SDS011;54569;52.018;5.584;2023-06-26T05:08:46;12.05;;;5.10;;
67768;SDS011;54569;52.018;5.584;2023-06-26T05:11:12;13.40;;;5.10;;
67768;SDS011;54569;52.018;5.584;2023-06-26T05:13:38;9.77;;;4.82;;
67768;SDS011;54569;52.018;5.584;2023-06-26T05:16:03;8.63;;;4.68;;
67768;SDS011;54569;52.018;5.584;2023-06-26T05:18:29;11.85;;;4.18;;
67768;SDS011;54569;52.018;5.584;2023-06-26T05:20:55;10.65;;;4.10;;
67768;SDS011;54569;52.018;5.584;2023-06-26T05:23:20;10.60;;;4.85;;
67768;SDS011;54569;52.018;5.584;2023-06-26T05:25:50;10.77;;;4.13;;
67768;SDS011;54569;52.018;5.584;2023-06-26T05:28:16;8.57;;;4.28;;
67768;SDS011;54569;52.018;5.584;2023-06-26T05:30:42;9.05;;;3.92;;
67768;SDS011;54569;52.018;5.584;2023-06-26T05:33:10;8.88;;;4.40;;
67768;SDS011;54569;52.018;5.584;2023-06-26T05:35:37;6.57;;;3.67;;
67768;SDS011;54569;52.018;5.584;2023-06-26T05:38:02;8.25;;;3.67;;
67768;SDS011;54569;52.018;5.584;2023-06-26T05:40:28;6.70;;;3.58;;
67768;SDS011;54569;52.018;5.584;2023-06-26T05:42:54;9.02;;;3.75;;
67768;SDS011;54569;52.018;5.584;2023-06-26T05:45:20;10.88;;;3.70;;
67768;SDS011;54569;52.018;5.584;2023-06-26T05:47:46;9.40;;;3.50;;
67768;SDS011;54569;52.018;5.584;2023-06-26T05:50:12;5.40;;;3.50;;
67768;SDS011;54569;52.018;5.584;2023-06-26T05:52:38;6.05;;;3.03;;
67768;SDS011;54569;52.018;5.584;2023-06-26T05:55:04;4.72;;;2.83;;
67768;SDS011;54569;52.018;5.584;2023-06-26T05:57:30;4.90;;;2.72;;
67768;SDS011;54569;52.018;5.584;2023-06-26T05:59:56;6.22;;;2.72;;
67768;SDS011;54569;52.018;5.584;2023-06-26T06:02:22;6.72;;;2.90;;
67768;SDS011;54569;52.018;5.584;2023-06-26T06:04:48;6.47;;;2.97;;
67768;SDS011;54569;52.018;5.584;2023-06-26T06:07:14;5.07;;;2.78;;
67768;SDS011;54569;52.018;5.584;2023-06-26T06:09:40;4.78;;;2.50;;
67768;SDS011;54569;52.018;5.584;2023-06-26T06:12:06;4.68;;;2.67;;
67768;SDS011;54569;52.018;5.584;2023-06-26T06:14:33;4.32;;;3.03;;
67768;SDS011;54569;52.018;5.584;2023-06-26T06:16:59;9.35;;;2.55;;
67768;SDS011;54569;52.018;5.584;2023-06-26T06:19:25;5.80;;;2.50;;
67768;SDS011;54569;52.018;5.584;2023-06-26T06:21:51;3.92;;;2.60;;
67768;SDS011;54569;52.018;5.584;2023-06-26T06:24:16;5.00;;;2.38;;
67768;SDS011;54569;52.018;5.584;2023-06-26T06:26:42;4.32;;;2.60;;
67768;SDS011;54569;52.018;5.584;2023-06-26T06:29:08;6.00;;;3.25;;
67768;SDS011;54569;52.018;5.584;2023-06-26T06:31:34;4.65;;;2.30;;
67768;SDS011;54569;52.018;5.584;2023-06-26T06:33:59;2.97;;;2.60;;
67768;SDS011;54569;52.018;5.584;2023-06-26T06:36:25;4.18;;;2.42;;
67768;SDS011;54569;52.018;5.584;2023-06-26T06:38:51;4.75;;;2.80;;
67768;SDS011;54569;52.018;5.584;2023-06-26T06:41:16;3.92;;;2.28;;
67768;SDS011;54569;52.018;5.584;2023-06-26T06:43:42;4.80;;;2.90;;
67768;SDS011;54569;52.018;5.584;2023-06-26T06:46:08;4.03;;;2.40;;
67768;SDS011;54569;52.018;5.584;2023-06-26T06:48:34;5.47;;;2.63;;
67768;SDS011;54569;52.018;5.584;2023-06-26T06:51:00;6.13;;;2.72;;
67768;SDS011;54569;52.018;5.584;2023-06-26T06:53:26;7.75;;;2.47;;
67768;SDS011;54569;52.018;5.584;2023-06-26T06:55:51;2.53;;;2.22;;
67768;SDS011;54569;52.018;5.584;2023-06-26T06:58:17;4.88;;;2.92;;
67768;SDS011;54569;52.018;5.584;2023-06-26T07:00:47;4.88;;;2.63;;
67768;SDS011;54569;52.018;5.584;2023-06-26T07:03:14;6.18;;;2.70;;
67768;SDS011;54569;52.018;5.584;2023-06-26T07:05:42;2.85;;;2.60;;
67768;SDS011;54569;52.018;5.584;2023-06-26T07:08:08;4.95;;;2.63;;
67768;SDS011;54569;52.018;5.584;2023-06-26T07:10:34;5.32;;;2.65;;
67768;SDS011;54569;52.018;5.584;2023-06-26T07:13:00;5.95;;;3.17;;
67768;SDS011;54569;52.018;5.584;2023-06-26T07:15:26;5.18;;;2.85;;
67768;SDS011;54569;52.018;5.584;2023-06-26T07:17:51;6.43;;;3.00;;
67768;SDS011;54569;52.018;5.584;2023-06-26T07:20:17;5.43;;;2.40;;
67768;SDS011;54569;52.018;5.584;2023-06-26T07:22:43;5.85;;;2.42;;
67768;SDS011;54569;52.018;5.584;2023-06-26T07:25:10;4.32;;;2.75;;
67768;SDS011;54569;52.018;5.584;2023-06-26T07:27:36;5.25;;;2.40;;
67768;SDS011;54569;52.018;5.584;2023-06-26T07:30:02;4.63;;;2.92;;
67768;SDS011;54569;52.018;5.584;2023-06-26T07:32:28;3.22;;;2.60;;
67768;SDS011;54569;52.018;5.584;2023-06-26T07:34:54;6.60;;;3.13;;
67768;SDS011;54569;52.018;5.584;2023-06-26T07:37:20;13.57;;;3.42;;
67768;SDS011;54569;52.018;5.584;2023-06-26T07:39:47;7.18;;;2.90;;
67768;SDS011;54569;52.018;5.584;2023-06-26T07:42:13;4.10;;;2.40;;
67768;SDS011;54569;52.018;5.584;2023-06-26T07:44:39;6.30;;;2.85;;
67768;SDS011;54569;52.018;5.584;2023-06-26T07:47:06;7.00;;;2.67;;
67768;SDS011;54569;52.018;5.584;2023-06-26T07:49:32;4.72;;;2.70;;
67768;SDS011;54569;52.018;5.584;2023-06-26T07:51:57;4.63;;;2.67;;
67768;SDS011;54569;52.018;5.584;2023-06-26T07:54:23;4.15;;;2.97;;
67768;SDS011;54569;52.018;5.584;2023-06-26T07:59:19;3.58;;;2.72;;
67768;SDS011;54569;52.018;5.584;2023-06-26T08:01:47;4.80;;;2.88;;
67768;SDS011;54569;52.018;5.584;2023-06-26T08:04:13;4.80;;;2.65;;
67768;SDS011;54569;52.018;5.584;2023-06-26T08:06:38;6.13;;;3.00;;
67768;SDS011;54569;52.018;5.584;2023-06-26T08:09:05;5.13;;;2.90;;
67768;SDS011;54569;52.018;5.584;2023-06-26T08:11:33;4.60;;;2.90;;
67768;SDS011;54569;52.018;5.584;2023-06-26T08:13:59;3.58;;;2.92;;
67768;SDS011;54569;52.018;5.584;2023-06-26T08:16:25;5.97;;;3.15;;
67768;SDS011;54569;52.018;5.584;2023-06-26T08:18:50;5.53;;;3.05;;
67768;SDS011;54569;52.018;5.584;2023-06-26T08:21:16;7.35;;;3.13;;
67768;SDS011;54569;52.018;5.584;2023-06-26T08:23:42;6.15;;;3.10;;
67768;SDS011;54569;52.018;5.584;2023-06-26T08:26:08;3.95;;;2.80;;
67768;SDS011;54569;52.018;5.584;2023-06-26T08:28:33;3.03;;;2.53;;
67768;SDS011;54569;52.018;5.584;2023-06-26T08:30:59;6.15;;;3.08;;
67768;SDS011;54569;52.018;5.584;2023-06-26T08:33:25;4.75;;;2.55;;
67768;SDS011;54569;52.018;5.584;2023-06-26T08:35:51;6.38;;;2.72;;
67768;SDS011;54569;52.018;5.584;2023-06-26T08:38:16;3.38;;;2.40;;
67768;SDS011;54569;52.018;5.584;2023-06-26T08:40:42;3.17;;;1.92;;
67768;SDS011;54569;52.018;5.584;2023-06-26T08:43:08;7.22;;;2.80;;
67768;SDS011;54569;52.018;5.584;2023-06-26T08:45:33;4.90;;;2.83;;
67768;SDS011;54569;52.018;5.584;2023-06-26T08:48:00;4.20;;;2.90;;
67768;SDS011;54569;52.018;5.584;2023-06-26T08:50:30;4.28;;;2.30;;
67768;SDS011;54569;52.018;5.584;2023-06-26T08:53:14;3.95;;;2.10;;
67768;SDS011;54569;52.018;5.584;2023-06-26T08:55:59;4.18;;;1.80;;
67768;SDS011;54569;52.018;5.584;2023-06-26T08:58:26;4.25;;;2.65;;
67768;SDS011;54569;52.018;5.584;2023-06-26T09:00:52;4.68;;;2.17;;
67768;SDS011;54569;52.018;5.584;2023-06-26T09:03:20;10.50;;;2.63;;
67768;SDS011;54569;52.018;5.584;2023-06-26T09:05:46;4.93;;;1.90;;
67768;SDS011;54569;52.018;5.584;2023-06-26T09:08:12;5.57;;;1.63;;
67768;SDS011;54569;52.018;5.584;2023-06-26T09:10:38;6.63;;;2.03;;
67768;SDS011;54569;52.018;5.584;2023-06-26T09:13:04;6.85;;;1.50;;
67768;SDS011;54569;52.018;5.584;2023-06-26T09:16:04;4.88;;;1.92;;
67768;SDS011;54569;52.018;5.584;2023-06-26T09:18:23;3.13;;;1.70;;
67768;SDS011;54569;52.018;5.584;2023-06-26T09:20:49;2.42;;;1.40;;
67768;SDS011;54569;52.018;5.584;2023-06-26T09:23:16;6.18;;;1.33;;
67768;SDS011;54569;52.018;5.584;2023-06-26T09:25:42;4.72;;;1.73;;
67768;SDS011;54569;52.018;5.584;2023-06-26T09:28:09;4.20;;;1.52;;
67768;SDS011;54569;52.018;5.584;2023-06-26T09:30:35;5.55;;;1.38;;
67768;SDS011;54569;52.018;5.584;2023-06-26T09:33:14;16.08;;;2.25;;
67768;SDS011;54569;52.018;5.584;2023-06-26T09:35:41;4.47;;;1.48;;
67768;SDS011;54569;52.018;5.584;2023-06-26T09:38:07;8.80;;;1.52;;
67768;SDS011;54569;52.018;5.584;2023-06-26T09:40:33;3.65;;;1.58;;
67768;SDS011;54569;52.018;5.584;2023-06-26T09:43:07;10.60;;;2.03;;
67768;SDS011;54569;52.018;5.584;2023-06-26T09:45:33;3.47;;;1.08;;
67768;SDS011;54569;52.018;5.584;2023-06-26T09:48:03;6.13;;;1.38;;
67768;SDS011;54569;52.018;5.584;2023-06-26T09:50:30;5.25;;;1.30;;
67768;SDS011;54569;52.018;5.584;2023-06-26T09:53:06;2.35;;;1.42;;
67768;SDS011;54569;52.018;5.584;2023-06-26T09:55:36;14.65;;;1.75;;
67768;SDS011;54569;52.018;5.584;2023-06-26T09:58:02;4.07;;;1.60;;
67768;SDS011;54569;52.018;5.584;2023-06-26T10:00:28;2.72;;;1.42;;
67768;SDS011;54569;52.018;5.584;2023-06-26T10:02:55;4.28;;;1.50;;
67768;SDS011;54569;52.018;5.584;2023-06-26T10:05:21;1.98;;;1.35;;
67768;SDS011;54569;52.018;5.584;2023-06-26T10:07:46;5.07;;;1.40;;
67768;SDS011;54569;52.018;5.584;2023-06-26T10:10:13;4.10;;;1.38;;
67768;SDS011;54569;52.018;5.584;2023-06-26T10:12:41;4.88;;;1.90;;
67768;SDS011;54569;52.018;5.584;2023-06-26T10:15:08;4.22;;;1.40;;
67768;SDS011;54569;52.018;5.584;2023-06-26T10:17:37;4.00;;;1.42;;
67768;SDS011;54569;52.018;5.584;2023-06-26T10:20:06;3.95;;;1.33;;
67768;SDS011;54569;52.018;5.584;2023-06-26T10:22:36;5.25;;;1.35;;
67768;SDS011;54569;52.018;5.584;2023-06-26T10:25:08;3.55;;;1.27;;
67768;SDS011;54569;52.018;5.584;2023-06-26T10:27:37;2.53;;;1.42;;
67768;SDS011;54569;52.018;5.584;2023-06-26T10:30:06;4.30;;;1.55;;
67768;SDS011;54569;52.018;5.584;2023-06-26T10:32:37;4.65;;;1.50;;
67768;SDS011;54569;52.018;5.584;2023-06-26T10:35:05;1.73;;;1.00;;
67768;SDS011;54569;52.018;5.584;2023-06-26T10:37:41;3.95;;;1.30;;
67768;SDS011;54569;52.018;5.584;2023-06-26T10:40:20;6.35;;;1.60;;
67768;SDS011;54569;52.018;5.584;2023-06-26T10:42:47;4.45;;;1.50;;
67768;SDS011;54569;52.018;5.584;2023-06-26T10:45:17;1.75;;;1.30;;
67768;SDS011;54569;52.018;5.584;2023-06-26T10:47:48;1.95;;;1.30;;
67768;SDS011;54569;52.018;5.584;2023-06-26T10:55:33;2.10;;;1.15;;
67768;SDS011;54569;52.018;5.584;2023-06-26T10:57:59;1.30;;;1.20;;
67768;SDS011;54569;52.018;5.584;2023-06-26T11:00:27;2.55;;;1.40;;
67768;SDS011;54569;52.018;5.584;2023-06-26T11:02:52;3.50;;;1.20;;
67768;SDS011;54569;52.018;5.584;2023-06-26T11:05:29;3.33;;;1.20;;
67768;SDS011;54569;52.018;5.584;2023-06-26T11:08:07;3.53;;;1.40;;
67768;SDS011;54569;52.018;5.584;2023-06-26T11:10:51;3.70;;;1.25;;
67768;SDS011;54569;52.018;5.584;2023-06-26T11:13:19;4.50;;;1.35;;
67768;SDS011;54569;52.018;5.584;2023-06-26T11:15:49;5.00;;;1.38;;
67768;SDS011;54569;52.018;5.584;2023-06-26T11:18:16;2.45;;;1.15;;
67768;SDS011;54569;52.018;5.584;2023-06-26T11:20:42;4.13;;;1.70;;
67768;SDS011;54569;52.018;5.584;2023-06-26T11:23:08;3.75;;;1.30;;
67768;SDS011;54569;52.018;5.584;2023-06-26T11:25:35;2.85;;;1.33;;
67768;SDS011;54569;52.018;5.584;2023-06-26T11:28:02;3.25;;;1.50;;
67768;SDS011;54569;52.018;5.584;2023-06-26T11:30:29;4.72;;;1.75;;
67768;SDS011;54569;52.018;5.584;2023-06-26T11:33:05;2.10;;;1.10;;
67768;SDS011;54569;52.018;5.584;2023-06-26T11:35:32;5.07;;;1.63;;
67768;SDS011;54569;52.018;5.584;2023-06-26T11:37:59;6.13;;;1.38;;
67768;SDS011;54569;52.018;5.584;2023-06-26T11:40:30;7.57;;;1.40;;
67768;SDS011;54569;52.018;5.584;2023-06-26T11:43:01;2.72;;;1.17;;
67768;SDS011;54569;52.018;5.584;2023-06-26T11:45:28;6.47;;;1.23;;
67768;SDS011;54569;52.018;5.584;2023-06-26T11:47:58;7.05;;;1.50;;
67768;SDS011;54569;52.018;5.584;2023-06-26T11:50:25;4.30;;;1.40;;
67768;SDS011;54569;52.018;5.584;2023-06-26T11:52:58;3.60;;;1.10;;
67768;SDS011;54569;52.018;5.584;2023-06-26T11:55:24;2.70;;;1.15;;
67768;SDS011;54569;52.018;5.584;2023-06-26T11:57:54;6.00;;;1.50;;
67768;SDS011;54569;52.018;5.584;2023-06-26T12:00:21;3.03;;;1.40;;
67768;SDS011;54569;52.018;5.584;2023-06-26T12:02:48;2.95;;;1.10;;
67768;SDS011;54569;52.018;5.584;2023-06-26T12:05:17;4.85;;;1.40;;
67768;SDS011;54569;52.018;5.584;2023-06-26T12:07:45;4.80;;;1.33;;
67768;SDS011;54569;52.018;5.584;2023-06-26T12:10:12;3.22;;;1.42;;
67768;SDS011;54569;52.018;5.584;2023-06-26T12:12:40;3.83;;;1.30;;
67768;SDS011;54569;52.018;5.584;2023-06-26T12:15:06;3.70;;;1.30;;
67768;SDS011;54569;52.018;5.584;2023-06-26T12:17:33;1.65;;;1.00;;
67768;SDS011;54569;52.018;5.584;2023-06-26T12:20:04;5.38;;;1.27;;
67768;SDS011;54569;52.018;5.584;2023-06-26T12:22:34;3.45;;;1.00;;
67768;SDS011;54569;52.018;5.584;2023-06-26T12:25:00;1.35;;;1.10;;
67768;SDS011;54569;52.018;5.584;2023-06-26T12:27:26;2.67;;;1.20;;
67768;SDS011;54569;52.018;5.584;2023-06-26T12:29:53;2.63;;;0.95;;
67768;SDS011;54569;52.018;5.584;2023-06-26T12:32:21;1.80;;;0.93;;
67768;SDS011;54569;52.018;5.584;2023-06-26T12:34:50;1.40;;;1.05;;
67768;SDS011;54569;52.018;5.584;2023-06-26T12:37:16;2.08;;;1.10;;
67768;SDS011;54569;52.018;5.584;2023-06-26T12:39:45;2.78;;;1.17;;
67768;SDS011;54569;52.018;5.584;2023-06-26T12:42:16;5.43;;;1.60;;
67768;SDS011;54569;52.018;5.584;2023-06-26T12:44:44;6.22;;;1.52;;
67768;SDS011;54569;52.018;5.584;2023-06-26T12:47:10;4.28;;;1.52;;
67768;SDS011;54569;52.018;5.584;2023-06-26T12:49:42;2.65;;;1.00;;
67768;SDS011;54569;52.018;5.584;2023-06-26T12:52:10;2.95;;;1.02;;
67768;SDS011;54569;52.018;5.584;2023-06-26T12:54:37;4.75;;;0.90;;
67768;SDS011;54569;52.018;5.584;2023-06-26T12:57:11;4.45;;;1.30;;
67768;SDS011;54569;52.018;5.584;2023-06-26T12:59:39;2.88;;;1.10;;
67768;SDS011;54569;52.018;5.584;2023-06-26T13:02:05;3.05;;;1.13;;
67768;SDS011;54569;52.018;5.584;2023-06-26T13:04:32;4.22;;;0.90;;
67768;SDS011;54569;52.018;5.584;2023-06-26T13:06:58;5.93;;;0.80;;
67768;SDS011;54569;52.018;5.584;2023-06-26T13:09:24;7.10;;;1.45;;
67768;SDS011;54569;52.018;5.584;2023-06-26T13:11:53;7.43;;;1.00;;
67768;SDS011;54569;52.018;5.584;2023-06-26T13:14:19;7.03;;;1.00;;
67768;SDS011;54569;52.018;5.584;2023-06-26T13:16:46;8.43;;;1.70;;
67768;SDS011;54569;52.018;5.584;2023-06-26T13:19:12;3.67;;;1.13;;
67768;SDS011;54569;52.018;5.584;2023-06-26T13:21:38;2.67;;;1.00;;
67768;SDS011;54569;52.018;5.584;2023-06-26T13:24:04;5.50;;;1.10;;
67768;SDS011;54569;52.018;5.584;2023-06-26T13:26:30;1.10;;;0.90;;
67768;SDS011;54569;52.018;5.584;2023-06-26T13:28:56;3.42;;;0.93;;
67768;SDS011;54569;52.018;5.584;2023-06-26T13:31:22;2.60;;;1.08;;
67768;SDS011;54569;52.018;5.584;2023-06-26T13:33:48;4.47;;;1.30;;
67768;SDS011;54569;52.018;5.584;2023-06-26T13:36:15;1.50;;;0.98;;
67768;SDS011;54569;52.018;5.584;2023-06-26T13:38:41;6.85;;;1.10;;
67768;SDS011;54569;52.018;5.584;2023-06-26T13:41:07;5.75;;;1.38;;
67768;SDS011;54569;52.018;5.584;2023-06-26T13:43:33;3.38;;;0.95;;
67768;SDS011;54569;52.018;5.584;2023-06-26T13:45:58;4.07;;;0.98;;
67768;SDS011;54569;52.018;5.584;2023-06-26T13:48:25;3.58;;;1.02;;
67768;SDS011;54569;52.018;5.584;2023-06-26T13:50:51;2.22;;;1.00;;
67768;SDS011;54569;52.018;5.584;2023-06-26T13:53:17;3.88;;;1.20;;
67768;SDS011;54569;52.018;5.584;2023-06-26T13:55:43;2.17;;;1.15;;
67768;SDS011;54569;52.018;5.584;2023-06-26T13:58:09;1.98;;;0.90;;
67768;SDS011;54569;52.018;5.584;2023-06-26T14:00:36;3.65;;;1.10;;
67768;SDS011;54569;52.018;5.584;2023-06-26T14:03:03;3.47;;;0.95;;
67768;SDS011;54569;52.018;5.584;2023-06-26T14:05:29;3.17;;;0.98;;
67768;SDS011;54569;52.018;5.584;2023-06-26T14:07:55;7.32;;;1.10;;
67768;SDS011;54569;52.018;5.584;2023-06-26T14:10:21;2.80;;;0.88;;
67768;SDS011;54569;52.018;5.584;2023-06-26T14:12:47;4.03;;;1.10;;
67768;SDS011;54569;52.018;5.584;2023-06-26T14:15:13;2.88;;;1.10;;
67768;SDS011;54569;52.018;5.584;2023-06-26T14:17:39;3.70;;;1.30;;
67768;SDS011;54569;52.018;5.584;2023-06-26T14:20:09;4.25;;;1.23;;
67768;SDS011;54569;52.018;5.584;2023-06-26T14:22:37;2.97;;;0.90;;
67768;SDS011;54569;52.018;5.584;2023-06-26T14:25:07;4.88;;;1.30;;
67768;SDS011;54569;52.018;5.584;2023-06-26T14:27:33;4.70;;;1.15;;
67768;SDS011;54569;52.018;5.584;2023-06-26T14:29:59;1.70;;;0.90;;
67768;SDS011;54569;52.018;5.584;2023-06-26T14:32:25;2.00;;;1.08;;
67768;SDS011;54569;52.018;5.584;2023-06-26T14:34:51;3.58;;;0.98;;
67768;SDS011;54569;52.018;5.584;2023-06-26T14:37:17;3.58;;;1.27;;
67768;SDS011;54569;52.018;5.584;2023-06-26T14:39:44;3.78;;;1.08;;
67768;SDS011;54569;52.018;5.584;2023-06-26T14:42:10;1.88;;;1.00;;
67768;SDS011;54569;52.018;5.584;2023-06-26T14:44:36;2.30;;;1.10;;
67768;SDS011;54569;52.018;5.584;2023-06-26T14:47:01;4.40;;;1.40;;
67768;SDS011;54569;52.018;5.584;2023-06-26T14:49:27;1.35;;;0.80;;
67768;SDS011;54569;52.018;5.584;2023-06-26T14:51:53;1.73;;;0.90;;
67768;SDS011;54569;52.018;5.584;2023-06-26T14:54:19;5.15;;;0.90;;
67768;SDS011;54569;52.018;5.584;2023-06-26T14:56:44;4.95;;;1.20;;
67768;SDS011;54569;52.018;5.584;2023-06-26T14:59:11;1.33;;;0.98;;